Flight Briefing for CPX718

Departure Arrival
Juan Santamar?a International Airport (MROC)
Click to view FAA NOTAMS
Miami International Airport (KMIA)
Click to view FAA NOTAMS
Departure Time Arrival Time
N/A N/A
Aircraft Distance
B767-300BDSF 976nm
Departure METAR Arrival METAR
MROC 152100Z 24011KT 9999 SCT040 28/18 A2993 NOSIG KMIA 152053Z 10006KT 10SM BKN034 OVC250 25/19 A2993 RMK AO2 SLP134 T02500189 56013
Suggested Route
UCA UA301 URSUS FLIPR6


View recent IFR Routes data
Notes



Charts and Procedures

Charts for MROC
No chart available
Charts for KMIA
No chart available

Ventusky Weather